sensor_id;sensor_type;location;lat;lon;timestamp;P1;durP1;ratioP1;P2;durP2;ratioP2
2992;SDS011;1506;48.932;9.478;2023-03-01T00:01:38;27.43;;;13.70;;
2992;SDS011;1506;48.932;9.478;2023-03-01T00:04:06;22.70;;;13.20;;
2992;SDS011;1506;48.932;9.478;2023-03-01T00:06:33;30.80;;;15.37;;
2992;SDS011;1506;48.932;9.478;2023-03-01T00:09:00;28.73;;;14.40;;
2992;SDS011;1506;48.932;9.478;2023-03-01T00:11:29;28.90;;;13.23;;
2992;SDS011;1506;48.932;9.478;2023-03-01T00:13:59;28.40;;;13.93;;
2992;SDS011;1506;48.932;9.478;2023-03-01T00:16:29;25.33;;;14.10;;
2992;SDS011;1506;48.932;9.478;2023-03-01T00:18:59;29.37;;;12.90;;
2992;SDS011;1506;48.932;9.478;2023-03-01T00:21:27;34.33;;;15.50;;
2992;SDS011;1506;48.932;9.478;2023-03-01T00:23:55;27.10;;;16.10;;
2992;SDS011;1506;48.932;9.478;2023-03-01T00:26:23;21.40;;;13.60;;
2992;SDS011;1506;48.932;9.478;2023-03-01T00:28:51;25.47;;;14.00;;
2992;SDS011;1506;48.932;9.478;2023-03-01T00:31:19;22.10;;;14.73;;
2992;SDS011;1506;48.932;9.478;2023-03-01T00:33:48;23.53;;;13.23;;
2992;SDS011;1506;48.932;9.478;2023-03-01T00:36:18;25.60;;;13.40;;
2992;SDS011;1506;48.932;9.478;2023-03-01T00:38:47;19.90;;;13.37;;
2992;SDS011;1506;48.932;9.478;2023-03-01T00:41:15;24.10;;;14.27;;
2992;SDS011;1506;48.932;9.478;2023-03-01T00:43:43;21.37;;;12.93;;
2992;SDS011;1506;48.932;9.478;2023-03-01T00:46:15;23.17;;;14.17;;
2992;SDS011;1506;48.932;9.478;2023-03-01T00:48:45;24.03;;;14.70;;
2992;SDS011;1506;48.932;9.478;2023-03-01T00:51:13;26.77;;;15.17;;
2992;SDS011;1506;48.932;9.478;2023-03-01T00:53:42;30.60;;;15.37;;
2992;SDS011;1506;48.932;9.478;2023-03-01T00:56:10;27.83;;;13.80;;
2992;SDS011;1506;48.932;9.478;2023-03-01T00:58:39;25.57;;;13.87;;
2992;SDS011;1506;48.932;9.478;2023-03-01T01:01:10;32.03;;;15.67;;
2992;SDS011;1506;48.932;9.478;2023-03-01T01:03:46;29.73;;;15.40;;
2992;SDS011;1506;48.932;9.478;2023-03-01T01:06:19;40.67;;;16.03;;
2992;SDS011;1506;48.932;9.478;2023-03-01T01:08:59;24.90;;;13.73;;
2992;SDS011;1506;48.932;9.478;2023-03-01T01:11:27;23.57;;;13.13;;
2992;SDS011;1506;48.932;9.478;2023-03-01T01:13:55;31.50;;;16.30;;
2992;SDS011;1506;48.932;9.478;2023-03-01T01:16:24;31.43;;;15.63;;
2992;SDS011;1506;48.932;9.478;2023-03-01T01:18:53;24.77;;;14.40;;
2992;SDS011;1506;48.932;9.478;2023-03-01T01:21:22;27.93;;;15.83;;
2992;SDS011;1506;48.932;9.478;2023-03-01T01:23:50;35.13;;;14.63;;
2992;SDS011;1506;48.932;9.478;2023-03-01T01:26:19;33.93;;;17.73;;
2992;SDS011;1506;48.932;9.478;2023-03-01T01:28:48;35.50;;;16.83;;
2992;SDS011;1506;48.932;9.478;2023-03-01T01:31:17;25.53;;;14.63;;
2992;SDS011;1506;48.932;9.478;2023-03-01T01:33:45;30.73;;;15.00;;
2992;SDS011;1506;48.932;9.478;2023-03-01T01:36:12;25.97;;;14.23;;
2992;SDS011;1506;48.932;9.478;2023-03-01T01:38:40;24.30;;;15.17;;
2992;SDS011;1506;48.932;9.478;2023-03-01T01:41:09;22.33;;;13.50;;
2992;SDS011;1506;48.932;9.478;2023-03-01T01:43:45;29.40;;;14.03;;
2992;SDS011;1506;48.932;9.478;2023-03-01T01:48:45;28.03;;;14.90;;
2992;SDS011;1506;48.932;9.478;2023-03-01T01:51:23;24.80;;;14.70;;
2992;SDS011;1506;48.932;9.478;2023-03-01T01:53:56;25.17;;;16.87;;
2992;SDS011;1506;48.932;9.478;2023-03-01T01:56:25;30.60;;;16.00;;
2992;SDS011;1506;48.932;9.478;2023-03-01T01:58:57;31.63;;;15.70;;
2992;SDS011;1506;48.932;9.478;2023-03-01T02:01:24;19.30;;;14.07;;
2992;SDS011;1506;48.932;9.478;2023-03-01T02:03:52;26.30;;;16.07;;
2992;SDS011;1506;48.932;9.478;2023-03-01T02:06:27;27.77;;;17.47;;
2992;SDS011;1506;48.932;9.478;2023-03-01T02:08:57;33.50;;;14.20;;
2992;SDS011;1506;48.932;9.478;2023-03-01T02:11:29;32.47;;;17.00;;
2992;SDS011;1506;48.932;9.478;2023-03-01T02:13:57;39.40;;;16.40;;
2992;SDS011;1506;48.932;9.478;2023-03-01T02:16:25;24.97;;;13.47;;
2992;SDS011;1506;48.932;9.478;2023-03-01T02:18:54;31.23;;;15.63;;
2992;SDS011;1506;48.932;9.478;2023-03-01T02:23:55;28.57;;;14.40;;
2992;SDS011;1506;48.932;9.478;2023-03-01T02:26:46;32.00;;;16.27;;
2992;SDS011;1506;48.932;9.478;2023-03-01T02:29:14;34.03;;;16.70;;
2992;SDS011;1506;48.932;9.478;2023-03-01T02:31:41;33.97;;;14.87;;
2992;SDS011;1506;48.932;9.478;2023-03-01T02:34:17;24.37;;;14.57;;
2992;SDS011;1506;48.932;9.478;2023-03-01T02:36:51;34.03;;;14.70;;
2992;SDS011;1506;48.932;9.478;2023-03-01T02:39:29;27.37;;;13.47;;
2992;SDS011;1506;48.932;9.478;2023-03-01T02:42:03;34.50;;;16.90;;
2992;SDS011;1506;48.932;9.478;2023-03-01T02:44:31;33.63;;;15.87;;
2992;SDS011;1506;48.932;9.478;2023-03-01T02:46:59;32.10;;;17.23;;
2992;SDS011;1506;48.932;9.478;2023-03-01T02:49:29;28.27;;;16.10;;
2992;SDS011;1506;48.932;9.478;2023-03-01T02:54:33;30.13;;;17.30;;
2992;SDS011;1506;48.932;9.478;2023-03-01T02:57:12;34.03;;;16.00;;
2992;SDS011;1506;48.932;9.478;2023-03-01T02:59:40;29.03;;;16.17;;
2992;SDS011;1506;48.932;9.478;2023-03-01T03:02:19;37.97;;;17.17;;
2992;SDS011;1506;48.932;9.478;2023-03-01T03:04:48;31.23;;;15.23;;
2992;SDS011;1506;48.932;9.478;2023-03-01T03:07:15;30.00;;;15.33;;
2992;SDS011;1506;48.932;9.478;2023-03-01T03:09:43;29.17;;;17.93;;
2992;SDS011;1506;48.932;9.478;2023-03-01T03:12:11;26.83;;;15.80;;
2992;SDS011;1506;48.932;9.478;2023-03-01T03:14:39;31.07;;;14.47;;
2992;SDS011;1506;48.932;9.478;2023-03-01T03:17:06;35.67;;;15.70;;
2992;SDS011;1506;48.932;9.478;2023-03-01T03:19:34;34.47;;;16.03;;
2992;SDS011;1506;48.932;9.478;2023-03-01T03:22:01;38.33;;;16.67;;
2992;SDS011;1506;48.932;9.478;2023-03-01T03:24:28;29.07;;;15.83;;
2992;SDS011;1506;48.932;9.478;2023-03-01T03:27:04;34.53;;;16.37;;
2992;SDS011;1506;48.932;9.478;2023-03-01T03:29:32;30.73;;;17.27;;
2992;SDS011;1506;48.932;9.478;2023-03-01T03:31:59;32.83;;;16.33;;
2992;SDS011;1506;48.932;9.478;2023-03-01T03:34:27;32.20;;;16.40;;
2992;SDS011;1506;48.932;9.478;2023-03-01T03:36:54;36.83;;;17.17;;
2992;SDS011;1506;48.932;9.478;2023-03-01T03:39:28;27.77;;;16.50;;
2992;SDS011;1506;48.932;9.478;2023-03-01T03:42:01;34.37;;;16.73;;
2992;SDS011;1506;48.932;9.478;2023-03-01T03:44:28;29.77;;;16.20;;
2992;SDS011;1506;48.932;9.478;2023-03-01T03:46:55;34.80;;;17.43;;
2992;SDS011;1506;48.932;9.478;2023-03-01T03:49:23;27.67;;;16.47;;
2992;SDS011;1506;48.932;9.478;2023-03-01T03:51:50;30.77;;;15.73;;
2992;SDS011;1506;48.932;9.478;2023-03-01T03:54:18;28.10;;;15.90;;
2992;SDS011;1506;48.932;9.478;2023-03-01T03:56:45;31.50;;;15.40;;
2992;SDS011;1506;48.932;9.478;2023-03-01T03:59:12;39.90;;;16.80;;
2992;SDS011;1506;48.932;9.478;2023-03-01T04:01:40;38.63;;;15.10;;
2992;SDS011;1506;48.932;9.478;2023-03-01T04:04:07;36.40;;;17.50;;
2992;SDS011;1506;48.932;9.478;2023-03-01T04:06:35;35.43;;;15.63;;
2992;SDS011;1506;48.932;9.478;2023-03-01T04:09:02;34.67;;;15.00;;
2992;SDS011;1506;48.932;9.478;2023-03-01T04:11:29;29.17;;;15.73;;
2992;SDS011;1506;48.932;9.478;2023-03-01T04:13:57;30.63;;;15.33;;
2992;SDS011;1506;48.932;9.478;2023-03-01T04:16:26;31.60;;;15.13;;
2992;SDS011;1506;48.932;9.478;2023-03-01T04:18:54;52.77;;;16.87;;
2992;SDS011;1506;48.932;9.478;2023-03-01T04:21:22;26.73;;;14.47;;
2992;SDS011;1506;48.932;9.478;2023-03-01T04:23:51;28.10;;;14.50;;
2992;SDS011;1506;48.932;9.478;2023-03-01T04:26:19;29.20;;;14.87;;
2992;SDS011;1506;48.932;9.478;2023-03-01T04:28:47;33.93;;;16.27;;
2992;SDS011;1506;48.932;9.478;2023-03-01T04:31:17;37.30;;;18.73;;
2992;SDS011;1506;48.932;9.478;2023-03-01T04:33:51;35.97;;;16.77;;
2992;SDS011;1506;48.932;9.478;2023-03-01T04:36:21;29.47;;;16.30;;
2992;SDS011;1506;48.932;9.478;2023-03-01T04:38:50;28.50;;;16.47;;
2992;SDS011;1506;48.932;9.478;2023-03-01T04:41:18;35.30;;;17.57;;
2992;SDS011;1506;48.932;9.478;2023-03-01T04:43:48;30.20;;;15.23;;
2992;SDS011;1506;48.932;9.478;2023-03-01T04:46:17;36.03;;;16.17;;
2992;SDS011;1506;48.932;9.478;2023-03-01T04:48:46;38.43;;;18.60;;
2992;SDS011;1506;48.932;9.478;2023-03-01T04:51:13;34.97;;;17.07;;
2992;SDS011;1506;48.932;9.478;2023-03-01T04:53:42;29.53;;;15.97;;
2992;SDS011;1506;48.932;9.478;2023-03-01T04:56:10;32.77;;;16.17;;
2992;SDS011;1506;48.932;9.478;2023-03-01T04:58:40;28.60;;;16.03;;
2992;SDS011;1506;48.932;9.478;2023-03-01T05:01:08;31.50;;;17.37;;
2992;SDS011;1506;48.932;9.478;2023-03-01T05:03:44;37.00;;;18.07;;
2992;SDS011;1506;48.932;9.478;2023-03-01T05:06:16;37.40;;;18.23;;
2992;SDS011;1506;48.932;9.478;2023-03-01T05:08:44;33.13;;;17.47;;
2992;SDS011;1506;48.932;9.478;2023-03-01T05:11:12;29.53;;;16.50;;
2992;SDS011;1506;48.932;9.478;2023-03-01T05:13:39;44.60;;;16.83;;
2992;SDS011;1506;48.932;9.478;2023-03-01T05:16:07;41.33;;;18.67;;
2992;SDS011;1506;48.932;9.478;2023-03-01T05:18:38;33.30;;;15.50;;
2992;SDS011;1506;48.932;9.478;2023-03-01T05:21:07;38.23;;;17.40;;
2992;SDS011;1506;48.932;9.478;2023-03-01T05:23:36;41.43;;;16.57;;
2992;SDS011;1506;48.932;9.478;2023-03-01T05:26:04;30.40;;;15.90;;
2992;SDS011;1506;48.932;9.478;2023-03-01T05:28:36;29.73;;;17.13;;
2992;SDS011;1506;48.932;9.478;2023-03-01T05:31:04;34.27;;;17.07;;
2992;SDS011;1506;48.932;9.478;2023-03-01T05:33:36;35.70;;;16.00;;
2992;SDS011;1506;48.932;9.478;2023-03-01T05:36:05;36.83;;;16.50;;
2992;SDS011;1506;48.932;9.478;2023-03-01T05:38:33;36.83;;;15.60;;
2992;SDS011;1506;48.932;9.478;2023-03-01T05:41:01;42.60;;;18.77;;
2992;SDS011;1506;48.932;9.478;2023-03-01T05:43:32;42.50;;;18.20;;
2992;SDS011;1506;48.932;9.478;2023-03-01T05:46:00;41.10;;;17.90;;
2992;SDS011;1506;48.932;9.478;2023-03-01T05:48:27;35.73;;;16.23;;
2992;SDS011;1506;48.932;9.478;2023-03-01T05:50:58;36.03;;;18.67;;
2992;SDS011;1506;48.932;9.478;2023-03-01T05:53:26;36.03;;;18.73;;
2992;SDS011;1506;48.932;9.478;2023-03-01T05:55:54;45.90;;;18.53;;
2992;SDS011;1506;48.932;9.478;2023-03-01T05:58:21;39.97;;;19.33;;
2992;SDS011;1506;48.932;9.478;2023-03-01T06:00:48;35.40;;;18.33;;
2992;SDS011;1506;48.932;9.478;2023-03-01T06:03:18;28.77;;;15.40;;
2992;SDS011;1506;48.932;9.478;2023-03-01T06:05:46;39.80;;;18.40;;
2992;SDS011;1506;48.932;9.478;2023-03-01T06:08:13;38.47;;;15.80;;
2992;SDS011;1506;48.932;9.478;2023-03-01T06:10:40;37.10;;;18.47;;
2992;SDS011;1506;48.932;9.478;2023-03-01T06:13:08;36.73;;;17.90;;
2992;SDS011;1506;48.932;9.478;2023-03-01T06:15:35;39.20;;;17.17;;
2992;SDS011;1506;48.932;9.478;2023-03-01T06:18:03;34.17;;;17.83;;
2992;SDS011;1506;48.932;9.478;2023-03-01T06:20:31;31.33;;;17.50;;
2992;SDS011;1506;48.932;9.478;2023-03-01T06:22:58;40.03;;;17.67;;
2992;SDS011;1506;48.932;9.478;2023-03-01T06:25:26;31.07;;;16.63;;
2992;SDS011;1506;48.932;9.478;2023-03-01T06:27:54;39.37;;;17.17;;
2992;SDS011;1506;48.932;9.478;2023-03-01T06:30:22;39.57;;;18.87;;
2992;SDS011;1506;48.932;9.478;2023-03-01T06:32:50;47.33;;;18.73;;
2992;SDS011;1506;48.932;9.478;2023-03-01T06:35:18;43.27;;;21.63;;
2992;SDS011;1506;48.932;9.478;2023-03-01T06:37:46;38.80;;;19.20;;
2992;SDS011;1506;48.932;9.478;2023-03-01T06:40:14;33.67;;;17.93;;
2992;SDS011;1506;48.932;9.478;2023-03-01T06:42:43;36.73;;;17.00;;
2992;SDS011;1506;48.932;9.478;2023-03-01T06:45:14;42.13;;;16.73;;
2992;SDS011;1506;48.932;9.478;2023-03-01T06:47:42;39.23;;;18.63;;
2992;SDS011;1506;48.932;9.478;2023-03-01T06:50:09;50.53;;;19.23;;
2992;SDS011;1506;48.932;9.478;2023-03-01T06:52:37;45.03;;;18.73;;
2992;SDS011;1506;48.932;9.478;2023-03-01T06:55:05;33.17;;;18.50;;
2992;SDS011;1506;48.932;9.478;2023-03-01T06:57:33;33.90;;;17.60;;
2992;SDS011;1506;48.932;9.478;2023-03-01T07:00:00;51.50;;;20.83;;
2992;SDS011;1506;48.932;9.478;2023-03-01T07:02:29;35.83;;;19.83;;
2992;SDS011;1506;48.932;9.478;2023-03-01T07:04:56;47.27;;;18.80;;
2992;SDS011;1506;48.932;9.478;2023-03-01T07:07:24;37.60;;;18.13;;
2992;SDS011;1506;48.932;9.478;2023-03-01T07:09:51;40.40;;;17.90;;
2992;SDS011;1506;48.932;9.478;2023-03-01T07:12:19;39.27;;;18.00;;
2992;SDS011;1506;48.932;9.478;2023-03-01T07:14:46;35.03;;;17.70;;
2992;SDS011;1506;48.932;9.478;2023-03-01T07:17:14;34.93;;;18.37;;
2992;SDS011;1506;48.932;9.478;2023-03-01T07:19:41;37.37;;;19.80;;
2992;SDS011;1506;48.932;9.478;2023-03-01T07:22:08;43.10;;;21.00;;
2992;SDS011;1506;48.932;9.478;2023-03-01T07:24:36;35.30;;;18.27;;
2992;SDS011;1506;48.932;9.478;2023-03-01T07:27:03;40.00;;;18.97;;
2992;SDS011;1506;48.932;9.478;2023-03-01T07:29:31;36.83;;;18.73;;
2992;SDS011;1506;48.932;9.478;2023-03-01T07:31:58;39.53;;;17.00;;
2992;SDS011;1506;48.932;9.478;2023-03-01T07:34:26;30.67;;;17.33;;
2992;SDS011;1506;48.932;9.478;2023-03-01T07:36:53;34.43;;;18.60;;
2992;SDS011;1506;48.932;9.478;2023-03-01T07:39:20;36.23;;;18.80;;
2992;SDS011;1506;48.932;9.478;2023-03-01T07:41:49;34.90;;;17.97;;
2992;SDS011;1506;48.932;9.478;2023-03-01T07:44:20;41.67;;;20.00;;
2992;SDS011;1506;48.932;9.478;2023-03-01T07:46:48;40.20;;;18.87;;
2992;SDS011;1506;48.932;9.478;2023-03-01T07:49:15;33.57;;;18.23;;
2992;SDS011;1506;48.932;9.478;2023-03-01T07:51:43;39.87;;;17.90;;
2992;SDS011;1506;48.932;9.478;2023-03-01T07:54:10;30.70;;;17.10;;
2992;SDS011;1506;48.932;9.478;2023-03-01T07:56:37;37.67;;;17.70;;
2992;SDS011;1506;48.932;9.478;2023-03-01T07:59:06;41.73;;;17.17;;
2992;SDS011;1506;48.932;9.478;2023-03-01T08:01:34;35.13;;;17.70;;
2992;SDS011;1506;48.932;9.478;2023-03-01T08:04:02;29.63;;;16.70;;
2992;SDS011;1506;48.932;9.478;2023-03-01T08:06:33;35.13;;;17.00;;
2992;SDS011;1506;48.932;9.478;2023-03-01T08:09:01;27.07;;;16.47;;
2992;SDS011;1506;48.932;9.478;2023-03-01T08:11:29;33.33;;;18.10;;
2992;SDS011;1506;48.932;9.478;2023-03-01T08:13:56;32.33;;;16.93;;
2992;SDS011;1506;48.932;9.478;2023-03-01T08:16:24;31.97;;;16.83;;
2992;SDS011;1506;48.932;9.478;2023-03-01T08:18:51;30.97;;;16.73;;
2992;SDS011;1506;48.932;9.478;2023-03-01T08:21:20;33.57;;;17.57;;
2992;SDS011;1506;48.932;9.478;2023-03-01T08:23:47;33.17;;;15.87;;
2992;SDS011;1506;48.932;9.478;2023-03-01T08:26:16;39.47;;;16.70;;
2992;SDS011;1506;48.932;9.478;2023-03-01T08:28:45;38.07;;;17.10;;
2992;SDS011;1506;48.932;9.478;2023-03-01T08:31:23;31.77;;;18.57;;
2992;SDS011;1506;48.932;9.478;2023-03-01T08:33:54;40.47;;;17.47;;
2992;SDS011;1506;48.932;9.478;2023-03-01T08:36:23;32.03;;;17.80;;
2992;SDS011;1506;48.932;9.478;2023-03-01T08:39:12;29.80;;;18.33;;
2992;SDS011;1506;48.932;9.478;2023-03-01T08:41:41;31.70;;;16.67;;
2992;SDS011;1506;48.932;9.478;2023-03-01T08:44:12;40.20;;;17.30;;
2992;SDS011;1506;48.932;9.478;2023-03-01T08:46:40;34.67;;;18.50;;
2992;SDS011;1506;48.932;9.478;2023-03-01T08:49:12;24.97;;;15.87;;
2992;SDS011;1506;48.932;9.478;2023-03-01T08:51:41;33.57;;;19.33;;
2992;SDS011;1506;48.932;9.478;2023-03-01T08:54:10;44.87;;;17.03;;
2992;SDS011;1506;48.932;9.478;2023-03-01T08:56:39;34.67;;;17.53;;
2992;SDS011;1506;48.932;9.478;2023-03-01T08:59:06;30.30;;;15.70;;
2992;SDS011;1506;48.932;9.478;2023-03-01T09:01:35;37.17;;;17.37;;
2992;SDS011;1506;48.932;9.478;2023-03-01T09:04:03;34.17;;;18.67;;
2992;SDS011;1506;48.932;9.478;2023-03-01T09:06:31;30.83;;;17.07;;
2992;SDS011;1506;48.932;9.478;2023-03-01T09:08:59;32.80;;;18.10;;
2992;SDS011;1506;48.932;9.478;2023-03-01T09:11:27;32.77;;;16.43;;
2992;SDS011;1506;48.932;9.478;2023-03-01T09:13:55;30.73;;;17.13;;
2992;SDS011;1506;48.932;9.478;2023-03-01T09:16:23;32.87;;;17.90;;
2992;SDS011;1506;48.932;9.478;2023-03-01T09:18:51;33.53;;;17.47;;
2992;SDS011;1506;48.932;9.478;2023-03-01T09:21:20;36.03;;;19.03;;
2992;SDS011;1506;48.932;9.478;2023-03-01T09:24:05;37.33;;;15.80;;
2992;SDS011;1506;48.932;9.478;2023-03-01T09:26:39;34.30;;;18.00;;
2992;SDS011;1506;48.932;9.478;2023-03-01T09:29:06;29.47;;;15.77;;
2992;SDS011;1506;48.932;9.478;2023-03-01T09:31:35;31.03;;;17.37;;
2992;SDS011;1506;48.932;9.478;2023-03-01T09:34:03;39.70;;;20.50;;
2992;SDS011;1506;48.932;9.478;2023-03-01T09:36:31;26.93;;;14.97;;
2992;SDS011;1506;48.932;9.478;2023-03-01T09:38:59;33.77;;;17.40;;
2992;SDS011;1506;48.932;9.478;2023-03-01T09:41:38;33.67;;;16.53;;
2992;SDS011;1506;48.932;9.478;2023-03-01T09:47:05;33.67;;;18.77;;
2992;SDS011;1506;48.932;9.478;2023-03-01T09:49:39;26.53;;;15.33;;
2992;SDS011;1506;48.932;9.478;2023-03-01T09:54:38;31.60;;;16.97;;
2992;SDS011;1506;48.932;9.478;2023-03-01T09:59:52;29.97;;;16.57;;
2992;SDS011;1506;48.932;9.478;2023-03-01T10:10:46;31.50;;;14.80;;
2992;SDS011;1506;48.932;9.478;2023-03-01T10:13:16;22.37;;;14.20;;
2992;SDS011;1506;48.932;9.478;2023-03-01T10:16:03;24.77;;;16.20;;
2992;SDS011;1506;48.932;9.478;2023-03-01T10:18:38;26.00;;;14.93;;
2992;SDS011;1506;48.932;9.478;2023-03-01T10:21:19;27.23;;;14.03;;
2992;SDS011;1506;48.932;9.478;2023-03-01T10:23:49;18.83;;;14.97;;
2992;SDS011;1506;48.932;9.478;2023-03-01T10:29:08;28.80;;;15.37;;
2992;SDS011;1506;48.932;9.478;2023-03-01T10:31:47;24.47;;;14.57;;
2992;SDS011;1506;48.932;9.478;2023-03-01T10:34:27;23.83;;;14.63;;
2992;SDS011;1506;48.932;9.478;2023-03-01T10:36:56;30.27;;;16.67;;
2992;SDS011;1506;48.932;9.478;2023-03-01T10:39:54;25.67;;;14.33;;
2992;SDS011;1506;48.932;9.478;2023-03-01T10:42:46;25.20;;;16.00;;
2992;SDS011;1506;48.932;9.478;2023-03-01T10:45:16;28.77;;;17.67;;
2992;SDS011;1506;48.932;9.478;2023-03-01T10:47:43;24.63;;;13.90;;
2992;SDS011;1506;48.932;9.478;2023-03-01T10:50:18;19.90;;;13.80;;
2992;SDS011;1506;48.932;9.478;2023-03-01T10:53:03;27.97;;;16.37;;
2992;SDS011;1506;48.932;9.478;2023-03-01T10:58:07;20.10;;;14.07;;
2992;SDS011;1506;48.932;9.478;2023-03-01T11:03:34;23.93;;;15.73;;
2992;SDS011;1506;48.932;9.478;2023-03-01T11:06:05;24.93;;;14.60;;
2992;SDS011;1506;48.932;9.478;2023-03-01T11:08:34;21.53;;;13.60;;
2992;SDS011;1506;48.932;9.478;2023-03-01T11:13:57;28.20;;;16.23;;
2992;SDS011;1506;48.932;9.478;2023-03-01T11:16:31;28.27;;;15.57;;
2992;SDS011;1506;48.932;9.478;2023-03-01T11:21:39;21.33;;;14.40;;
2992;SDS011;1506;48.932;9.478;2023-03-01T11:24:14;22.17;;;14.03;;
2992;SDS011;1506;48.932;9.478;2023-03-01T11:26:44;22.17;;;13.53;;
2992;SDS011;1506;48.932;9.478;2023-03-01T11:29:27;20.70;;;13.30;;
2992;SDS011;1506;48.932;9.478;2023-03-01T11:32:14;21.20;;;13.23;;
2992;SDS011;1506;48.932;9.478;2023-03-01T11:41:28;24.93;;;15.70;;
2992;SDS011;1506;48.932;9.478;2023-03-01T11:52:18;25.03;;;14.33;;
2992;SDS011;1506;48.932;9.478;2023-03-01T12:00:58;22.73;;;14.87;;
2992;SDS011;1506;48.932;9.478;2023-03-01T12:15:25;28.87;;;14.37;;
2992;SDS011;1506;48.932;9.478;2023-03-01T12:34:55;23.80;;;16.43;;
2992;SDS011;1506;48.932;9.478;2023-03-01T12:37:53;25.53;;;15.97;;
2992;SDS011;1506;48.932;9.478;2023-03-01T12:43:46;27.53;;;15.23;;
2992;SDS011;1506;48.932;9.478;2023-03-01T12:49:20;20.90;;;14.37;;
2992;SDS011;1506;48.932;9.478;2023-03-01T12:51:57;19.80;;;14.50;;
2992;SDS011;1506;48.932;9.478;2023-03-01T12:54:50;26.10;;;16.17;;
2992;SDS011;1506;48.932;9.478;2023-03-01T13:08:23;22.00;;;14.73;;
2992;SDS011;1506;48.932;9.478;2023-03-01T13:11:04;28.83;;;17.83;;
2992;SDS011;1506;48.932;9.478;2023-03-01T13:16:46;39.63;;;18.00;;
2992;SDS011;1506;48.932;9.478;2023-03-01T13:19:18;34.27;;;16.57;;
2992;SDS011;1506;48.932;9.478;2023-03-01T13:21:55;25.30;;;17.00;;
2992;SDS011;1506;48.932;9.478;2023-03-01T13:24:37;22.30;;;16.20;;
2992;SDS011;1506;48.932;9.478;2023-03-01T13:29:46;30.20;;;18.27;;
2992;SDS011;1506;48.932;9.478;2023-03-01T13:32:24;29.00;;;16.60;;
2992;SDS011;1506;48.932;9.478;2023-03-01T13:37:46;28.73;;;16.20;;
2992;SDS011;1506;48.932;9.478;2023-03-01T13:42:45;23.17;;;16.47;;
2992;SDS011;1506;48.932;9.478;2023-03-01T13:45:38;30.37;;;18.00;;
2992;SDS011;1506;48.932;9.478;2023-03-01T13:48:18;24.37;;;15.37;;
2992;SDS011;1506;48.932;9.478;2023-03-01T13:50:53;30.10;;;18.43;;
2992;SDS011;1506;48.932;9.478;2023-03-01T13:53:29;26.07;;;17.80;;
2992;SDS011;1506;48.932;9.478;2023-03-01T13:56:07;26.27;;;17.10;;
2992;SDS011;1506;48.932;9.478;2023-03-01T13:59:12;30.30;;;16.87;;
2992;SDS011;1506;48.932;9.478;2023-03-01T14:01:41;23.23;;;14.63;;
2992;SDS011;1506;48.932;9.478;2023-03-01T14:04:20;27.33;;;18.17;;
2992;SDS011;1506;48.932;9.478;2023-03-01T14:06:49;26.40;;;17.10;;
2992;SDS011;1506;48.932;9.478;2023-03-01T14:09:17;47.93;;;19.50;;
2992;SDS011;1506;48.932;9.478;2023-03-01T14:19:58;27.73;;;18.40;;
2992;SDS011;1506;48.932;9.478;2023-03-01T14:22:34;28.40;;;16.10;;
2992;SDS011;1506;48.932;9.478;2023-03-01T14:25:06;37.10;;;18.63;;
2992;SDS011;1506;48.932;9.478;2023-03-01T14:27:51;33.57;;;17.60;;
2992;SDS011;1506;48.932;9.478;2023-03-01T14:33:00;37.40;;;19.20;;
2992;SDS011;1506;48.932;9.478;2023-03-01T14:35:31;33.13;;;16.63;;
2992;SDS011;1506;48.932;9.478;2023-03-01T14:38:00;28.73;;;16.90;;
2992;SDS011;1506;48.932;9.478;2023-03-01T14:40:29;32.40;;;17.10;;
2992;SDS011;1506;48.932;9.478;2023-03-01T14:42:59;26.03;;;17.17;;
2992;SDS011;1506;48.932;9.478;2023-03-01T14:45:28;28.27;;;17.63;;
2992;SDS011;1506;48.932;9.478;2023-03-01T14:48:00;25.37;;;15.90;;
2992;SDS011;1506;48.932;9.478;2023-03-01T14:50:33;34.70;;;18.77;;
2992;SDS011;1506;48.932;9.478;2023-03-01T14:53:05;39.13;;;19.73;;
2992;SDS011;1506;48.932;9.478;2023-03-01T14:55:35;27.03;;;16.30;;
2992;SDS011;1506;48.932;9.478;2023-03-01T14:58:15;43.03;;;16.53;;
2992;SDS011;1506;48.932;9.478;2023-03-01T15:00:48;26.10;;;16.23;;
2992;SDS011;1506;48.932;9.478;2023-03-01T15:03:20;24.33;;;14.57;;
2992;SDS011;1506;48.932;9.478;2023-03-01T15:05:52;27.27;;;17.30;;
2992;SDS011;1506;48.932;9.478;2023-03-01T15:08:21;29.93;;;15.10;;
2992;SDS011;1506;48.932;9.478;2023-03-01T15:13:52;32.97;;;16.40;;
2992;SDS011;1506;48.932;9.478;2023-03-01T15:18:53;28.60;;;17.70;;
2992;SDS011;1506;48.932;9.478;2023-03-01T15:21:22;30.33;;;17.23;;
2992;SDS011;1506;48.932;9.478;2023-03-01T15:23:55;30.07;;;15.50;;
2992;SDS011;1506;48.932;9.478;2023-03-01T15:26:40;33.33;;;15.60;;
2992;SDS011;1506;48.932;9.478;2023-03-01T15:29:16;29.27;;;15.90;;
2992;SDS011;1506;48.932;9.478;2023-03-01T15:32:46;25.20;;;15.47;;
2992;SDS011;1506;48.932;9.478;2023-03-01T15:35:01;25.77;;;16.40;;
2992;SDS011;1506;48.932;9.478;2023-03-01T15:40:56;27.87;;;14.83;;
2992;SDS011;1506;48.932;9.478;2023-03-01T15:43:42;24.57;;;16.60;;
2992;SDS011;1506;48.932;9.478;2023-03-01T15:46:16;25.27;;;15.37;;
2992;SDS011;1506;48.932;9.478;2023-03-01T15:48:48;22.07;;;14.43;;
2992;SDS011;1506;48.932;9.478;2023-03-01T15:51:20;24.20;;;14.97;;
2992;SDS011;1506;48.932;9.478;2023-03-01T15:53:55;28.77;;;16.90;;
2992;SDS011;1506;48.932;9.478;2023-03-01T15:56:24;22.40;;;15.20;;
2992;SDS011;1506;48.932;9.478;2023-03-01T15:58:51;27.07;;;15.77;;
2992;SDS011;1506;48.932;9.478;2023-03-01T16:01:18;29.10;;;16.90;;
2992;SDS011;1506;48.932;9.478;2023-03-01T16:03:46;34.00;;;15.00;;
2992;SDS011;1506;48.932;9.478;2023-03-01T16:06:13;25.07;;;15.33;;
2992;SDS011;1506;48.932;9.478;2023-03-01T16:08:41;31.77;;;14.53;;
2992;SDS011;1506;48.932;9.478;2023-03-01T16:11:10;30.17;;;16.00;;
2992;SDS011;1506;48.932;9.478;2023-03-01T16:13:42;29.77;;;14.47;;
2992;SDS011;1506;48.932;9.478;2023-03-01T16:16:10;20.97;;;14.27;;
2992;SDS011;1506;48.932;9.478;2023-03-01T16:18:43;30.67;;;15.37;;
2992;SDS011;1506;48.932;9.478;2023-03-01T16:21:15;27.47;;;15.97;;
2992;SDS011;1506;48.932;9.478;2023-03-01T16:23:47;27.97;;;16.37;;
2992;SDS011;1506;48.932;9.478;2023-03-01T16:26:15;28.67;;;14.50;;
2992;SDS011;1506;48.932;9.478;2023-03-01T16:28:46;26.30;;;13.57;;
2992;SDS011;1506;48.932;9.478;2023-03-01T16:31:16;26.77;;;15.07;;
2992;SDS011;1506;48.932;9.478;2023-03-01T16:33:45;24.13;;;12.63;;
2992;SDS011;1506;48.932;9.478;2023-03-01T16:36:17;29.27;;;13.70;;
2992;SDS011;1506;48.932;9.478;2023-03-01T16:38:45;35.63;;;14.30;;
2992;SDS011;1506;48.932;9.478;2023-03-01T16:41:17;21.33;;;13.97;;
2992;SDS011;1506;48.932;9.478;2023-03-01T16:43:46;30.03;;;13.37;;
2992;SDS011;1506;48.932;9.478;2023-03-01T16:46:15;27.70;;;14.40;;
2992;SDS011;1506;48.932;9.478;2023-03-01T16:48:47;27.40;;;14.57;;
2992;SDS011;1506;48.932;9.478;2023-03-01T16:51:15;23.67;;;14.33;;
2992;SDS011;1506;48.932;9.478;2023-03-01T16:53:43;22.23;;;12.20;;
2992;SDS011;1506;48.932;9.478;2023-03-01T16:56:13;22.30;;;12.90;;
2992;SDS011;1506;48.932;9.478;2023-03-01T16:58:41;26.80;;;13.13;;
2992;SDS011;1506;48.932;9.478;2023-03-01T17:01:11;23.27;;;12.50;;
2992;SDS011;1506;48.932;9.478;2023-03-01T17:03:42;25.47;;;13.17;;
2992;SDS011;1506;48.932;9.478;2023-03-01T17:06:13;29.63;;;14.97;;
2992;SDS011;1506;48.932;9.478;2023-03-01T17:08:42;31.00;;;15.80;;
2992;SDS011;1506;48.932;9.478;2023-03-01T17:11:11;26.80;;;13.40;;
2992;SDS011;1506;48.932;9.478;2023-03-01T17:13:40;26.67;;;13.30;;
2992;SDS011;1506;48.932;9.478;2023-03-01T17:16:09;27.30;;;14.00;;
2992;SDS011;1506;48.932;9.478;2023-03-01T17:18:38;23.60;;;14.83;;
2992;SDS011;1506;48.932;9.478;2023-03-01T17:21:06;28.73;;;15.77;;
2992;SDS011;1506;48.932;9.478;2023-03-01T17:23:34;26.70;;;16.30;;
2992;SDS011;1506;48.932;9.478;2023-03-01T17:26:02;30.77;;;14.73;;